NCAR-RAP Real-Time Weather Data

Output produced by METARs form (01 December 2020  18:26 UTC)
found at http://weather.rap.ucar.edu/surface/
 
KPDT 011653Z 00000KT 10SM CLR 01/M02 A3059 RMK AO2 SLP366 T00111022
KPDT 011553Z 12005KT 10SM CLR M02/M04 A3058 RMK AO2 SLP365 T10221039
KPDT 011453Z 14005KT 10SM CLR M03/M04 A3057 RMK AO2 SLP360 T10331044 52016
KPDT 011353Z 16004KT 10SM CLR M01/M03 A3055 RMK AO2 SLP352 T10111033
KPDT 011253Z AUTO 18004KT 10SM CLR M01/M03 A3054 RMK AO2 SLP348 T10111033
KPDT 011153Z AUTO 14006KT 10SM CLR M01/M03 A3052 RMK AO2 SLP340 70001 T10061033 10039 21011 52010
KPDT 011053Z AUTO 15007KT 10SM CLR 00/M03 A3051 RMK AO2 SLP334 T00001033
KPDT 010953Z AUTO 20006KT 10SM CLR 01/M03 A3050 RMK AO2 SLP332 T00061028
KPDT 010853Z AUTO 16006KT 10SM CLR 01/M02 A3049 RMK AO2 SLP327 T00061022 51023
KPDT 010753Z AUTO 23006KT 10SM CLR 03/M02 A3047 RMK AO2 SLP321 T00281022 401001044